Time;durP1;ratioP1;P1;durP2;ratioP2;P2;SDS_P1;SDS_P2;PMS_P1;PMS_P2;Temp;Humidity;BMP_temperature;BMP_pressure;BME280_temperature;BME280_humidity;BME280_pressure;Samples;Min_cycle;Max_cycle;Signal;HPM_P1;HPM_P2
2022/01/09 00:02:00;;;;;;;6.78;4.00;;;;;;;3.70;100.00;98740.28;5073042;28;20494;-56
2022/01/09 00:04:29;;;;;;;5.72;3.63;;;;;;;3.70;100.00;98748.09;5069298;28;20060;-56
2022/01/09 00:06:57;;;;;;;6.35;3.67;;;;;;;3.75;100.00;98752.94;5073559;28;20048;-56
2022/01/09 00:09:27;;;;;;;7.47;3.92;;;;;;;3.74;100.00;98762.53;5074313;28;20044;-54
2022/01/09 00:11:55;;;;;;;7.93;3.72;;;;;;;3.68;100.00;98760.34;5073895;28;20045;-55
2022/01/09 00:14:23;;;;;;;7.07;4.05;;;;;;;3.75;100.00;98760.75;5073706;28;20548;-56
2022/01/09 00:16:51;;;;;;;7.28;4.50;;;;;;;3.72;100.00;98765.25;5071134;28;20063;-56
2022/01/09 00:19:19;;;;;;;7.47;4.05;;;;;;;3.73;100.00;98766.06;5070691;28;20476;-56
2022/01/09 00:21:49;;;;;;;7.40;3.83;;;;;;;3.77;100.00;98762.31;5070214;28;20063;-55
2022/01/09 00:24:17;;;;;;;6.18;3.70;;;;;;;3.76;100.00;98765.84;5070336;28;20531;-53
2022/01/09 00:26:45;;;;;;;5.65;3.42;;;;;;;3.80;100.00;98751.69;5069750;28;20037;-56
2022/01/09 00:29:13;;;;;;;6.80;3.67;;;;;;;3.84;100.00;98754.91;5068111;28;20044;-54
2022/01/09 00:31:41;;;;;;;8.77;3.88;;;;;;;3.81;100.00;98755.13;5072267;28;20049;-55
2022/01/09 00:34:09;;;;;;;7.85;4.07;;;;;;;3.76;100.00;98760.63;5070784;28;20090;-54
2022/01/09 00:36:37;;;;;;;7.72;3.83;;;;;;;3.76;100.00;98758.03;5069578;28;20418;-54
2022/01/09 00:39:07;;;;;;;6.25;3.53;;;;;;;3.81;100.00;98749.94;5068608;28;20048;-53
2022/01/09 00:41:35;;;;;;;5.43;3.17;;;;;;;3.84;100.00;98755.72;5070016;28;20462;-54
2022/01/09 00:44:03;;;;;;;4.82;2.92;;;;;;;3.91;100.00;98758.72;5071817;28;20052;-54
2022/01/09 00:46:33;;;;;;;6.05;3.05;;;;;;;3.94;100.00;98755.94;5073284;28;20048;-54
2022/01/09 00:49:02;;;;;;;5.90;3.38;;;;;;;3.93;100.00;98758.63;5073302;28;20041;-54
2022/01/09 00:51:30;;;;;;;5.65;3.10;;;;;;;3.95;100.00;98767.16;5072828;28;20495;-55
2022/01/09 00:54:02;;;;;;;4.72;3.10;;;;;;;3.94;100.00;98761.13;5068851;28;20052;-54
2022/01/09 00:56:31;;;;;;;5.47;2.97;;;;;;;3.96;100.00;98771.44;5071896;28;20045;-52
2022/01/09 00:59:00;;;;;;;4.32;2.50;;;;;;;3.97;100.00;98768.72;5072875;28;20118;-56
2022/01/09 01:01:28;;;;;;;6.00;3.20;;;;;;;3.97;100.00;98775.69;5069205;28;20045;-55
2022/01/09 01:03:56;;;;;;;4.85;2.72;;;;;;;3.97;100.00;98789.53;5069996;28;20067;-55
2022/01/09 01:06:24;;;;;;;4.10;2.78;;;;;;;3.99;100.00;98784.22;5072737;28;20091;-55
2022/01/09 01:08:52;;;;;;;5.35;2.90;;;;;;;3.99;100.00;98789.41;5072950;28;20048;-56
2022/01/09 01:11:20;;;;;;;6.07;2.95;;;;;;;3.99;100.00;98805.00;5072898;28;20052;-56
2022/01/09 01:13:50;;;;;;;4.88;3.05;;;;;;;3.93;100.00;98801.09;5069214;28;20064;-56
2022/01/09 01:16:18;;;;;;;5.82;3.10;;;;;;;3.98;100.00;98808.56;5067520;28;20056;-53
2022/01/09 01:18:46;;;;;;;6.25;3.75;;;;;;;3.91;100.00;98808.16;5069107;28;20064;-56
2022/01/09 01:21:14;;;;;;;6.05;3.80;;;;;;;3.90;100.00;98811.72;5069313;28;20514;-54
2022/01/09 01:23:42;;;;;;;6.85;4.20;;;;;;;3.89;100.00;98815.25;5068733;28;20098;-55
2022/01/09 01:26:10;;;;;;;6.72;4.32;;;;;;;3.96;100.00;98820.84;5068963;28;20056;-55
2022/01/09 01:28:39;;;;;;;7.75;4.75;;;;;;;3.97;100.00;98823.34;5069398;28;20131;-55
2022/01/09 01:31:08;;;;;;;5.90;4.10;;;;;;;3.95;100.00;98840.81;5072776;28;20047;-55
2022/01/09 01:33:36;;;;;;;7.25;4.47;;;;;;;3.94;100.00;98851.31;5072519;28;20114;-56
2022/01/09 01:36:05;;;;;;;8.07;4.72;;;;;;;3.95;100.00;98855.59;5072566;28;20102;-55
2022/01/09 01:38:33;;;;;;;6.53;4.32;;;;;;;3.99;100.00;98855.25;5069369;28;20490;-55
2022/01/09 01:41:02;;;;;;;10.00;4.13;;;;;;;3.96;100.00;98868.50;5069149;28;20063;-56
2022/01/09 01:43:30;;;;;;;6.00;3.53;;;;;;;3.97;100.00;98874.53;5072509;28;20061;-53
2022/01/09 01:46:02;;;;;;;5.35;3.45;;;;;;;4.02;100.00;98882.84;5072432;28;20059;-55
2022/01/09 01:48:31;;;;;;;6.22;3.70;;;;;;;4.02;100.00;98888.88;5072325;28;20489;-54
2022/01/09 01:50:59;;;;;;;6.85;3.83;;;;;;;4.02;100.00;98878.47;5071910;28;20471;-55
2022/01/09 01:53:28;;;;;;;5.07;2.35;;;;;;;4.12;100.00;98889.06;5071838;28;20075;-56
2022/01/09 01:55:57;;;;;;;6.78;2.00;;;;;;;4.13;100.00;98882.94;5069363;28;20048;-54
2022/01/09 01:58:27;;;;;;;13.07;2.10;;;;;;;4.13;100.00;98901.16;5067923;28;20049;-56
2022/01/09 02:00:55;;;;;;;8.45;2.05;;;;;;;4.18;100.00;98914.66;5068080;28;20515;-55
2022/01/09 02:03:23;;;;;;;10.70;1.70;;;;;;;4.27;100.00;98904.53;5072021;28;20040;-55
2022/01/09 02:05:53;;;;;;;8.13;2.58;;;;;;;4.25;100.00;98920.28;5069024;28;21009;-56
2022/01/09 02:08:21;;;;;;;13.70;2.20;;;;;;;4.31;100.00;98919.00;5068995;28;20536;-56
2022/01/09 02:10:49;;;;;;;14.02;2.42;;;;;;;4.31;100.00;98929.41;5068359;28;20044;-57
2022/01/09 02:13:19;;;;;;;16.20;2.42;;;;;;;4.33;100.00;98930.16;5070532;28;20047;-55
2022/01/09 02:15:48;;;;;;;15.18;2.30;;;;;;;4.31;100.00;98924.22;5069064;28;20055;-53
2022/01/09 02:18:18;;;;;;;10.63;2.15;;;;;;;4.32;100.00;98931.94;5068813;28;20041;-55
2022/01/09 02:20:48;;;;;;;15.18;2.58;;;;;;;4.35;100.00;98934.31;5068274;28;20066;-56
2022/01/09 02:23:18;;;;;;;17.10;2.42;;;;;;;4.32;100.00;98942.34;5069436;28;20511;-56
2022/01/09 02:25:47;;;;;;;17.30;2.13;;;;;;;4.38;100.00;98941.09;5071587;28;20561;-55
2022/01/09 02:28:17;;;;;;;14.68;2.53;;;;;;;4.42;100.00;98955.56;5071140;28;20491;-56
2022/01/09 02:30:49;;;;;;;14.00;2.40;;;;;;;4.46;100.00;98964.81;5070186;28;20041;-55
2022/01/09 02:33:18;;;;;;;14.57;2.63;;;;;;;4.52;100.00;98966.16;5073150;28;20044;-53
2022/01/09 02:35:51;;;;;;;26.08;3.38;;;;;;;4.62;100.00;98968.94;5072443;28;20519;-55
2022/01/09 02:38:20;;;;;;;22.48;3.80;;;;;;;4.71;100.00;98979.53;5072702;28;20737;-55
2022/01/09 02:40:51;;;;;;;25.48;3.60;;;;;;;4.79;100.00;98992.03;5071992;28;20449;-53
2022/01/09 02:43:21;;;;;;;18.65;3.85;;;;;;;4.79;100.00;98988.59;5072384;28;20495;-55
2022/01/09 02:45:54;;;;;;;21.13;3.63;;;;;;;4.78;100.00;99000.75;5070961;28;20067;-54
2022/01/09 02:48:22;;;;;;;29.35;4.10;;;;;;;4.82;100.00;99004.00;5074242;28;20048;-54
2022/01/09 02:51:01;;;;;;;19.27;3.65;;;;;;;4.88;100.00;99016.56;5071481;28;20212;-54
2022/01/09 02:53:33;;;;;;;27.13;3.90;;;;;;;4.91;100.00;99021.59;5074416;28;20051;-54
2022/01/09 02:56:02;;;;;;;23.77;3.95;;;;;;;4.90;100.00;99025.13;5075048;28;20629;-53
2022/01/09 02:58:30;;;;;;;22.98;3.88;;;;;;;4.89;100.00;99032.13;5071778;28;20083;-55
2022/01/09 03:00:58;;;;;;;36.38;4.22;;;;;;;4.91;100.00;99042.44;5070000;28;20064;-53
2022/01/09 03:03:27;;;;;;;17.70;3.35;;;;;;;4.90;100.00;99043.38;5072372;28;20053;-55
2022/01/09 03:05:57;;;;;;;26.33;4.28;;;;;;;4.91;100.00;99047.66;5071224;28;20076;-55
2022/01/09 03:08:25;;;;;;;22.10;3.75;;;;;;;4.90;100.00;99062.41;5071576;28;20044;-55
2022/01/09 03:10:53;;;;;;;22.27;3.65;;;;;;;4.94;100.00;99068.25;5071408;28;20049;-55
2022/01/09 03:13:22;;;;;;;30.70;4.30;;;;;;;4.90;100.00;99072.84;5070842;28;20052;-55
2022/01/09 03:15:50;;;;;;;22.35;3.78;;;;;;;4.95;100.00;99074.28;5069357;28;20119;-52
2022/01/09 03:18:18;;;;;;;30.45;4.80;;;;;;;4.94;100.00;99077.88;5071635;28;20517;-55
2022/01/09 03:20:46;;;;;;;24.13;3.67;;;;;;;4.93;100.00;99089.22;5071635;28;20075;-56
2022/01/09 03:23:15;;;;;;;20.42;3.83;;;;;;;4.94;100.00;99089.09;5071865;28;20048;-55
2022/01/09 03:25:43;;;;;;;27.27;4.22;;;;;;;4.91;100.00;99090.16;5071806;28;20044;-54
2022/01/09 03:28:12;;;;;;;25.60;3.90;;;;;;;4.94;100.00;99090.88;5072957;28;20098;-56
2022/01/09 03:30:40;;;;;;;31.42;4.57;;;;;;;4.91;100.00;99092.75;5069112;28;20040;-53
2022/01/09 03:33:08;;;;;;;27.85;3.58;;;;;;;4.94;100.00;99096.91;5071485;28;20102;-56
2022/01/09 03:35:36;;;;;;;34.33;5.07;;;;;;;4.89;100.00;99097.25;5070957;28;20052;-55
2022/01/09 03:38:05;;;;;;;24.15;3.47;;;;;;;4.92;100.00;99101.38;5070493;28;20119;-55
2022/01/09 03:40:35;;;;;;;27.35;4.75;;;;;;;4.96;100.00;99110.66;5069803;28;20098;-56
2022/01/09 03:43:03;;;;;;;16.45;3.58;;;;;;;4.98;100.00;99110.56;5070082;28;20126;-55
2022/01/09 03:45:31;;;;;;;31.38;4.10;;;;;;;4.94;100.00;99117.75;5069475;28;20071;-55
2022/01/09 03:47:59;;;;;;;25.67;3.25;;;;;;;4.92;100.00;99130.03;5071252;28;20045;-55
2022/01/09 03:50:28;;;;;;;24.65;3.85;;;;;;;4.89;100.00;99133.72;5070729;28;20044;-55
2022/01/09 03:52:56;;;;;;;20.35;3.25;;;;;;;4.94;100.00;99140.38;5070715;28;20052;-56
2022/01/09 03:55:25;;;;;;;25.13;3.25;;;;;;;4.91;100.00;99152.66;5069981;28;20502;-55
2022/01/09 03:57:54;;;;;;;30.35;3.30;;;;;;;4.93;100.00;99160.38;5070857;28;20072;-56
2022/01/09 04:00:24;;;;;;;21.77;3.30;;;;;;;4.96;100.00;99167.16;5068226;28;20139;-55
2022/01/09 04:02:54;;;;;;;24.70;3.05;;;;;;;4.96;100.00;99174.97;5070882;28;20053;-55
2022/01/09 04:05:22;;;;;;;18.42;3.10;;;;;;;4.93;100.00;99176.00;5070629;28;20132;-55
2022/01/09 04:07:50;;;;;;;29.02;5.15;;;;;;;4.88;100.00;99189.38;5071141;28;20040;-55
2022/01/09 04:10:28;;;;;;;23.15;3.95;;;;;;;4.86;100.00;99191.22;5070226;28;20059;-55
2022/01/09 04:13:00;;;;;;;23.90;3.00;;;;;;;4.86;100.00;99195.59;5071007;28;20529;-56
2022/01/09 04:15:29;;;;;;;19.88;3.10;;;;;;;4.85;100.00;99193.94;5068726;28;20119;-55
2022/01/09 04:17:58;;;;;;;27.27;3.92;;;;;;;4.93;100.00;99204.66;5070792;28;20055;-55
2022/01/09 04:20:28;;;;;;;22.52;3.88;;;;;;;4.89;100.00;99217.09;5070424;28;20041;-55
2022/01/09 04:22:57;;;;;;;26.50;4.40;;;;;;;4.88;100.00;99219.78;5069874;28;20052;-55
2022/01/09 04:25:26;;;;;;;14.32;3.40;;;;;;;4.88;100.00;99222.38;5070075;28;20550;-55
2022/01/09 04:27:55;;;;;;;17.45;2.40;;;;;;;4.90;100.00;99231.75;5069303;28;20367;-55
2022/01/09 04:30:24;;;;;;;19.52;3.08;;;;;;;4.88;100.00;99227.59;5068121;28;20040;-56
2022/01/09 04:32:52;;;;;;;21.65;3.13;;;;;;;4.86;100.00;99250.31;5070227;28;20129;-56
2022/01/09 04:35:20;;;;;;;20.55;3.60;;;;;;;4.88;100.00;99251.03;5070057;28;20739;-56
2022/01/09 04:37:49;;;;;;;24.35;3.40;;;;;;;4.81;100.00;99258.41;5070239;28;20056;-54
2022/01/09 04:40:20;;;;;;;32.22;3.92;;;;;;;4.80;100.00;99253.31;5069510;28;20416;-53
2022/01/09 04:42:51;;;;;;;24.08;3.70;;;;;;;4.81;100.00;99261.03;5070113;28;20052;-55
2022/01/09 04:45:21;;;;;;;13.93;3.17;;;;;;;4.84;100.00;99260.84;5068553;28;20040;-54
2022/01/09 04:47:51;;;;;;;21.67;2.60;;;;;;;4.84;100.00;99266.06;5070101;28;20048;-55
2022/01/09 04:50:24;;;;;;;14.77;2.63;;;;;;;4.88;100.00;99284.91;5068726;28;20495;-54
2022/01/09 04:52:57;;;;;;;;;;;;;;;4.87;100.00;99286.69;5070599;28;20403;-56
2022/01/09 04:55:25;;;;;;;19.50;2.30;;;;;;;4.86;100.00;99290.22;5069923;28;19927;-55
2022/01/09 04:57:53;;;;;;;19.25;3.00;;;;;;;4.81;100.00;99284.47;5069895;28;20076;-54
2022/01/09 05:00:22;;;;;;;20.65;3.05;;;;;;;4.78;100.00;99296.88;5067416;28;20511;-53
2022/01/09 05:02:51;;;;;;;16.23;2.15;;;;;;;4.76;100.00;99304.78;5070068;28;20574;-56
2022/01/09 05:05:20;;;;;;;20.05;2.70;;;;;;;4.81;100.00;99309.69;5069884;28;20068;-55
2022/01/09 05:07:49;;;;;;;13.73;2.35;;;;;;;4.73;100.00;99328.41;5069163;28;20055;-54
2022/01/09 05:10:17;;;;;;;16.50;2.85;;;;;;;4.70;100.00;99326.03;5069086;28;20036;-55
2022/01/09 05:12:45;;;;;;;17.23;2.85;;;;;;;4.73;100.00;99333.63;5069220;28;20064;-54
2022/01/09 05:15:15;;;;;;;13.52;2.50;;;;;;;4.70;100.00;99337.28;5067727;28;20405;-55
2022/01/09 05:17:43;;;;;;;14.68;2.95;;;;;;;4.71;100.00;99345.94;5069083;28;20056;-55
2022/01/09 05:20:14;;;;;;;18.70;2.45;;;;;;;4.68;100.00;99351.34;5069317;28;20498;-55
2022/01/09 05:22:42;;;;;;;13.38;3.30;;;;;;;4.70;100.00;99359.88;5069491;28;20055;-54
2022/01/09 05:25:10;;;;;;;17.10;2.95;;;;;;;4.70;100.00;99373.75;5069168;28;20055;-55
2022/01/09 05:27:39;;;;;;;16.58;2.45;;;;;;;4.74;100.00;99380.44;5068981;28;20040;-55
2022/01/09 05:30:08;;;;;;;21.23;3.72;;;;;;;4.71;100.00;99391.03;5067435;28;20044;-55
2022/01/09 05:32:36;;;;;;;14.05;3.13;;;;;;;4.66;100.00;99394.88;5068795;28;20040;-55
2022/01/09 05:35:05;;;;;;;13.82;2.83;;;;;;;4.64;100.00;99401.97;5069318;28;20052;-55
2022/01/09 05:37:34;;;;;;;13.07;2.38;;;;;;;4.63;100.00;99405.47;5068893;28;20480;-55
2022/01/09 05:40:03;;;;;;;12.57;2.42;;;;;;;4.61;100.00;99412.53;5069046;28;20048;-55
2022/01/09 05:42:31;;;;;;;12.85;1.75;;;;;;;4.61;100.00;99416.00;5068688;28;20062;-55
2022/01/09 05:45:00;;;;;;;15.75;2.20;;;;;;;4.61;100.00;99423.81;5067277;28;20052;-55
2022/01/09 05:47:28;;;;;;;15.50;3.00;;;;;;;4.53;100.00;99429.50;5068625;28;20106;-53
2022/01/09 05:49:56;;;;;;;16.13;3.03;;;;;;;4.57;100.00;99430.16;5068857;28;20048;-55
2022/01/09 05:52:24;;;;;;;21.55;2.42;;;;;;;4.52;100.00;99432.19;5068558;28;20040;-55
2022/01/09 05:54:53;;;;;;;16.73;2.67;;;;;;;4.47;100.00;99435.09;5068560;28;20048;-56
2022/01/09 05:57:21;;;;;;;19.52;3.28;;;;;;;4.47;100.00;99448.13;5068420;28;20060;-56
2022/01/09 05:59:49;;;;;;;19.30;4.18;;;;;;;4.47;100.00;99449.88;5066361;28;20136;-55
2022/01/09 06:02:17;;;;;;;21.60;2.45;;;;;;;4.45;100.00;99449.13;5068254;28;20040;-54
2022/01/09 06:04:46;;;;;;;17.13;3.03;;;;;;;4.44;100.00;99458.69;5068728;28;20502;-56
2022/01/09 06:07:14;;;;;;;9.60;2.22;;;;;;;4.46;100.00;99475.06;5068601;28;20098;-55
2022/01/09 06:09:42;;;;;;;10.35;2.25;;;;;;;4.44;100.00;99466.50;5068187;28;20055;-56
2022/01/09 06:12:11;;;;;;;16.73;2.72;;;;;;;4.52;100.00;99474.69;5068673;28;20048;-57
2022/01/09 06:14:41;;;;;;;12.98;2.45;;;;;;;4.46;100.00;99474.22;5066400;28;20056;-56
2022/01/09 06:17:10;;;;;;;10.50;2.65;;;;;;;4.46;100.00;99480.28;5068768;28;20048;-58
2022/01/09 06:19:38;;;;;;;10.68;2.13;;;;;;;4.44;100.00;99481.31;5068117;28;20052;-56
2022/01/09 06:22:06;;;;;;;19.10;3.20;;;;;;;4.43;100.00;99480.47;5068707;28;20120;-57
2022/01/09 06:24:34;;;;;;;11.68;2.08;;;;;;;4.49;100.00;99487.91;5067285;28;20080;-57
2022/01/09 06:27:03;;;;;;;13.20;2.38;;;;;;;4.39;100.00;99490.22;5068419;28;20067;-56
2022/01/09 06:29:32;;;;;;;18.17;2.30;;;;;;;4.38;100.00;99488.56;5066445;28;20098;-57
2022/01/09 06:32:00;;;;;;;16.42;3.05;;;;;;;4.37;100.00;99497.28;5068666;28;20048;-57
2022/01/09 06:34:28;;;;;;;23.38;2.90;;;;;;;4.43;100.00;99501.31;5068152;28;20051;-57
2022/01/09 06:36:56;;;;;;;12.35;2.72;;;;;;;4.41;100.00;99505.75;5066661;28;20045;-57
2022/01/09 06:39:24;;;;;;;15.15;1.95;;;;;;;4.36;100.00;99510.41;5068222;28;20144;-57
2022/01/09 06:41:52;;;;;;;14.40;2.30;;;;;;;4.34;100.00;99515.69;5068383;28;20105;-57
2022/01/09 06:44:20;;;;;;;14.23;2.38;;;;;;;4.31;100.00;99528.06;5066326;28;20101;-57
2022/01/09 06:46:50;;;;;;;10.85;2.30;;;;;;;4.31;100.00;99531.50;5068525;28;20394;-57
2022/01/09 06:49:18;;;;;;;16.20;2.65;;;;;;;4.31;100.00;99535.88;5068604;28;20455;-56
2022/01/09 06:51:46;;;;;;;9.98;1.98;;;;;;;4.29;100.00;99538.56;5068381;28;20086;-58
2022/01/09 06:54:14;;;;;;;13.57;2.22;;;;;;;4.32;100.00;99538.41;5068359;28;20056;-57
2022/01/09 06:56:42;;;;;;;15.05;2.30;;;;;;;4.27;100.00;99542.19;5067552;28;20544;-57
2022/01/09 06:59:11;;;;;;;13.93;2.38;;;;;;;4.29;100.00;99542.94;5066265;28;20054;-58
2022/01/09 07:01:39;;;;;;;6.57;1.65;;;;;;;4.26;100.00;99553.53;5067511;28;20135;-57
2022/01/09 07:04:08;;;;;;;10.15;1.90;;;;;;;4.25;100.00;99565.69;5068973;28;20083;-57
2022/01/09 07:06:36;;;;;;;11.90;2.30;;;;;;;4.15;100.00;99569.78;5067858;28;20052;-57
2022/01/09 07:09:05;;;;;;;9.32;1.85;;;;;;;4.07;100.00;99576.25;5068250;28;20090;-57
2022/01/09 07:11:33;;;;;;;15.00;2.42;;;;;;;4.09;100.00;99590.94;5068006;28;20056;-58
2022/01/09 07:14:01;;;;;;;10.80;1.77;;;;;;;4.15;100.00;99593.22;5068187;28;20067;-57
2022/01/09 07:16:30;;;;;;;9.82;1.70;;;;;;;4.12;100.00;99594.22;5071202;28;20044;-56
2022/01/09 07:18:58;;;;;;;18.00;2.92;;;;;;;4.10;100.00;99598.66;5072129;28;20516;-57
2022/01/09 07:21:28;;;;;;;16.95;2.55;;;;;;;4.06;100.00;99602.38;5071086;28;20048;-54
2022/01/09 07:23:56;;;;;;;10.73;1.92;;;;;;;4.05;100.00;99606.75;5071227;28;20060;-56
2022/01/09 07:26:24;;;;;;;12.18;2.13;;;;;;;4.03;100.00;99613.78;5071303;28;20076;-55
2022/01/09 07:28:52;;;;;;;7.93;1.70;;;;;;;4.02;100.00;99622.53;5070811;28;20511;-55
2022/01/09 07:31:20;;;;;;;15.82;2.67;;;;;;;4.00;100.00;99619.19;5070404;28;20507;-56
2022/01/09 07:33:48;;;;;;;10.27;2.47;;;;;;;3.97;100.00;99629.78;5071611;28;20048;-57
2022/01/09 07:36:18;;;;;;;10.55;1.98;;;;;;;3.97;100.00;99637.56;5071681;28;20048;-55
2022/01/09 07:38:48;;;;;;;10.23;2.30;;;;;;;3.98;100.00;99657.47;5071588;28;20498;-55
2022/01/09 07:41:17;;;;;;;8.13;1.88;;;;;;;3.96;100.00;99653.28;5071337;28;20145;-55
2022/01/09 07:43:45;;;;;;;12.77;2.80;;;;;;;3.95;100.00;99656.78;5070217;28;20047;-58
2022/01/09 07:46:13;;;;;;;19.20;2.85;;;;;;;3.94;100.00;99658.56;5068745;28;20075;-56
2022/01/09 07:48:42;;;;;;;14.05;2.60;;;;;;;3.95;100.00;99659.41;5070427;28;20449;-56
2022/01/09 07:51:10;;;;;;;10.00;2.35;;;;;;;3.91;100.00;99663.91;5070295;28;20056;-56
2022/01/09 07:53:38;;;;;;;10.88;2.05;;;;;;;3.91;100.00;99660.50;5070724;28;20071;-56
2022/01/09 07:56:07;;;;;;;9.55;2.03;;;;;;;3.89;100.00;99668.38;5071011;28;20513;-56
2022/01/09 07:58:36;;;;;;;11.70;1.85;;;;;;;3.87;100.00;99673.69;5070239;28;20049;-56
2022/01/09 08:01:04;;;;;;;11.07;1.95;;;;;;;3.86;100.00;99684.16;5068590;28;20060;-56
2022/01/09 08:03:33;;;;;;;9.50;1.70;;;;;;;3.79;100.00;99678.47;5070605;28;20053;-55
2022/01/09 08:06:02;;;;;;;10.82;2.13;;;;;;;3.84;100.00;99683.41;5070687;28;20414;-55
2022/01/09 08:08:30;;;;;;;8.35;2.10;;;;;;;3.79;100.00;99683.66;5070560;28;20499;-56
2022/01/09 08:10:58;;;;;;;8.65;1.90;;;;;;;3.72;100.00;99693.56;5070720;28;20049;-55
2022/01/09 08:13:28;;;;;;;17.13;2.47;;;;;;;3.76;100.00;99696.00;5070267;28;20036;-56
2022/01/09 08:15:56;;;;;;;8.43;1.42;;;;;;;3.78;100.00;99692.38;5068965;28;20683;-55
2022/01/09 08:18:24;;;;;;;9.18;1.75;;;;;;;3.73;100.00;99702.19;5070500;28;20143;-55
2022/01/09 08:20:52;;;;;;;11.18;2.28;;;;;;;3.76;100.00;99704.63;5070118;28;20526;-57
2022/01/09 08:23:20;;;;;;;12.70;1.90;;;;;;;3.79;100.00;99708.81;5070249;28;20044;-57
2022/01/09 08:25:48;;;;;;;10.07;1.92;;;;;;;3.84;100.00;99707.66;5070163;28;20055;-55
2022/01/09 08:28:16;;;;;;;13.88;1.80;;;;;;;3.76;100.00;99717.63;5070622;28;20139;-57
2022/01/09 08:30:46;;;;;;;10.07;1.90;;;;;;;3.76;100.00;99719.41;5067851;28;20123;-57
2022/01/09 08:33:14;;;;;;;6.93;1.45;;;;;;;3.72;100.00;99723.91;5070032;28;20678;-55
2022/01/09 08:35:42;;;;;;;8.90;1.98;;;;;;;3.73;100.00;99723.00;5069623;28;20044;-56
2022/01/09 08:38:10;;;;;;;12.35;1.77;;;;;;;3.81;100.00;99728.63;5070430;28;20441;-57
2022/01/09 08:40:38;;;;;;;12.23;1.90;;;;;;;3.81;100.00;99725.19;5069623;28;20045;-58
2022/01/09 08:43:07;;;;;;;8.27;1.35;;;;;;;3.82;100.00;99730.31;5070275;28;20041;-54
2022/01/09 08:45:35;;;;;;;8.52;2.03;;;;;;;3.88;100.00;99731.72;5067410;28;20047;-56
2022/01/09 08:48:05;;;;;;;13.88;2.03;;;;;;;3.90;100.00;99732.50;5070017;28;20068;-56
2022/01/09 08:50:33;;;;;;;7.40;1.55;;;;;;;3.88;100.00;99734.34;5069376;28;20041;-56
2022/01/09 08:53:01;;;;;;;11.05;1.80;;;;;;;3.86;100.00;99734.44;5069593;28;20045;-56
2022/01/09 08:55:29;;;;;;;11.73;2.03;;;;;;;3.85;100.00;99743.13;5069476;28;20048;-57
2022/01/09 08:57:58;;;;;;;8.23;1.70;;;;;;;3.85;100.00;99747.53;5069959;28;20071;-56
2022/01/09 09:00:26;;;;;;;12.70;2.45;;;;;;;3.81;100.00;99746.84;5067178;28;20053;-57
2022/01/09 09:02:54;;;;;;;9.50;1.88;;;;;;;3.86;100.00;99744.84;5069615;28;20048;-56
2022/01/09 09:05:24;;;;;;;10.38;1.90;;;;;;;3.98;100.00;99756.34;5068836;28;20540;-56
2022/01/09 09:07:52;;;;;;;8.80;2.08;;;;;;;4.02;100.00;99764.78;5068835;28;20510;-56
2022/01/09 09:10:20;;;;;;;12.15;1.85;;;;;;;4.00;100.00;99759.69;5069289;28;20087;-56
2022/01/09 09:12:48;;;;;;;11.20;1.75;;;;;;;4.04;100.00;99761.19;5069139;28;20055;-56
2022/01/09 09:15:20;;;;;;;9.02;1.90;;;;;;;4.05;100.00;99772.44;5067409;28;20075;-56
2022/01/09 09:17:52;;;;;;;8.02;1.70;;;;;;;4.12;100.00;99773.78;5069338;28;20060;-57
2022/01/09 09:20:21;;;;;;;10.25;1.92;;;;;;;4.21;100.00;99777.63;5069028;28;20479;-56
2022/01/09 09:22:52;;;;;;;9.18;2.00;;;;;;;4.31;100.00;99784.00;5068665;28;20057;-56
2022/01/09 09:25:20;;;;;;;7.57;1.80;;;;;;;4.39;100.00;99796.56;5069293;28;20045;-57
2022/01/09 09:27:48;;;;;;;11.35;2.33;;;;;;;4.43;100.00;99800.72;5068612;28;20400;-57
2022/01/09 09:30:16;;;;;;;7.65;1.60;;;;;;;4.52;100.00;99797.56;5067006;28;20078;-56
2022/01/09 09:32:44;;;;;;;10.63;1.70;;;;;;;4.63;100.00;99811.75;5066291;28;20083;-56
2022/01/09 09:35:13;;;;;;;8.60;2.05;;;;;;;4.65;100.00;99820.31;5067086;28;20115;-56
2022/01/09 09:37:41;;;;;;;8.40;2.03;;;;;;;4.66;100.00;99822.00;5065954;28;20098;-56
2022/01/09 09:40:12;;;;;;;9.35;2.08;;;;;;;4.56;100.00;99826.88;5066542;28;20048;-56
2022/01/09 09:42:40;;;;;;;10.82;2.13;;;;;;;4.57;100.00;99832.00;5066241;28;20059;-56
2022/01/09 09:45:11;;;;;;;10.77;1.80;;;;;;;4.60;100.00;99833.59;5064394;28;21987;-56
2022/01/09 09:47:41;;;;;;;7.90;2.03;;;;;;;4.62;100.00;99847.41;5070070;28;20094;-56
2022/01/09 09:50:11;;;;;;;10.55;2.13;;;;;;;4.61;100.00;99837.91;5069330;28;20052;-56
2022/01/09 09:52:40;;;;;;;7.13;1.60;;;;;;;4.60;100.00;99845.81;5070249;28;20048;-55
2022/01/09 09:55:09;;;;;;;10.48;2.22;;;;;;;4.68;100.00;99849.63;5068162;28;20067;-55
2022/01/09 09:57:39;;;;;;;11.15;2.65;;;;;;;4.70;100.00;99852.16;5070576;28;20060;-56
2022/01/09 10:00:10;;;;;;;11.25;2.80;;;;;;;4.73;100.00;99851.97;5069398;28;20157;-55
2022/01/09 10:02:44;;;;;;;7.68;1.83;;;;;;;4.74;100.00;99856.25;5070432;28;20506;-56
2022/01/09 10:05:14;;;;;;;11.68;2.42;;;;;;;4.76;100.00;99857.03;5068952;28;20131;-55
2022/01/09 10:07:42;;;;;;;14.30;2.35;;;;;;;4.74;100.00;99857.13;5070331;28;20044;-55
2022/01/09 10:10:14;;;;;;;9.02;2.40;;;;;;;4.73;100.00;99863.25;5068985;28;20091;-56
2022/01/09 10:12:46;;;;;;;8.75;2.40;;;;;;;4.71;100.00;99869.47;5069121;28;20521;-53
2022/01/09 10:15:17;;;;;;;9.90;1.80;;;;;;;4.67;100.00;99873.16;5069127;28;20123;-56
2022/01/09 10:17:47;;;;;;;11.30;2.50;;;;;;;4.78;100.00;99873.41;5069887;28;20060;-55
2022/01/09 10:20:20;;;;;;;15.50;3.03;;;;;;;4.97;100.00;99883.63;5069420;28;20095;-55
2022/01/09 10:22:50;;;;;;;7.47;1.83;;;;;;;4.92;100.00;99872.59;5069883;28;20044;-56
2022/01/09 10:25:23;;;;;;;12.23;1.77;;;;;;;4.86;100.00;99881.63;5068027;28;20052;-53
2022/01/09 10:28:01;;;;;;;14.50;2.70;;;;;;;4.82;100.00;99881.88;5070221;28;20052;-56
2022/01/09 10:30:31;;;;;;;10.07;1.70;;;;;;;4.88;100.00;99879.78;5068516;28;20106;-55
2022/01/09 10:33:02;;;;;;;8.07;1.90;;;;;;;4.90;100.00;99892.72;5064571;28;20499;-55
2022/01/09 10:35:31;;;;;;;10.93;1.98;;;;;;;4.90;100.00;99893.53;5067381;28;20040;-56
2022/01/09 10:38:12;;;;;;;13.13;2.28;;;;;;;4.93;100.00;99907.34;5070033;28;20573;-55
2022/01/09 10:40:42;;;;;;;12.43;2.35;;;;;;;4.99;100.00;99902.63;5067927;28;20040;-54
2022/01/09 10:43:14;;;;;;;11.77;2.20;;;;;;;5.05;100.00;99898.81;5069968;28;20045;-56
2022/01/09 10:45:46;;;;;;;9.60;1.77;;;;;;;4.98;100.00;99906.16;5071687;28;20133;-55
2022/01/09 10:48:19;;;;;;;12.50;2.10;;;;;;;4.92;100.00;99903.88;5071891;28;20059;-55
2022/01/09 10:50:47;;;;;;;;;;;;;;;4.94;100.00;99914.25;5076274;28;21048;-56
2022/01/09 10:53:24;;;;;;;9.38;2.50;;;;;;;5.01;100.00;99915.56;5075620;28;20011;-55
2022/01/09 10:56:13;;;;;;;9.23;2.30;;;;;;;5.08;100.00;99909.06;5075932;28;20396;-55
2022/01/09 10:58:45;;;;;;;10.90;2.00;;;;;;;5.13;100.00;99920.06;5075743;28;20048;-55
2022/01/09 11:01:20;;;;;;;7.78;2.00;;;;;;;5.08;100.00;99922.09;5075339;28;20119;-55
2022/01/09 11:03:50;;;;;;;10.23;2.08;;;;;;;5.23;100.00;99923.00;5075417;28;20057;-56
2022/01/09 11:06:19;;;;;;;10.73;2.70;;;;;;;5.28;100.00;99920.13;5075312;28;20058;-56
2022/01/09 11:08:48;;;;;;;11.27;2.47;;;;;;;5.40;100.00;99925.47;5075627;28;20049;-56
2022/01/09 11:11:26;;;;;;;11.45;2.35;;;;;;;5.43;100.00;99927.06;5075438;28;20060;-56
2022/01/09 11:13:57;;;;;;;14.07;2.75;;;;;;;5.48;100.00;99924.19;5075273;28;20047;-56
2022/01/09 11:16:37;;;;;;;13.02;2.40;;;;;;;5.54;100.00;99924.66;5075512;28;20056;-55
2022/01/09 11:19:09;;;;;;;12.82;2.50;;;;;;;5.52;100.00;99929.13;5075714;28;20053;-55
2022/01/09 11:21:38;;;;;;;16.58;3.15;;;;;;;5.68;100.00;99936.88;5075633;28;20056;-56
2022/01/09 11:24:22;;;;;;;13.65;2.50;;;;;;;5.71;100.00;99936.72;5075169;28;20052;-55
2022/01/09 11:26:53;;;;;;;13.75;2.80;;;;;;;5.81;100.00;99939.63;5075063;28;20060;-55
2022/01/09 11:29:31;;;;;;;8.98;2.83;;;;;;;5.87;100.00;99943.63;5073948;28;20053;-54
2022/01/09 11:32:09;;;;;;;9.57;1.80;;;;;;;6.04;100.00;99948.72;5075117;28;20052;-56
2022/01/09 11:34:50;;;;;;;10.45;2.28;;;;;;;6.07;99.34;99942.47;5074466;28;20060;-56
2022/01/09 11:37:31;;;;;;;8.85;2.20;;;;;;;6.12;100.00;99948.22;5074752;28;20554;-56
2022/01/09 11:40:01;;;;;;;9.00;1.85;;;;;;;6.08;98.90;99949.34;5073797;28;20059;-56